sensor_id;sensor_type;location;lat;lon;timestamp;P1;durP1;ratioP1;P2;durP2;ratioP2
27744;SDS011;61387;48.112;8.616;2023-04-12T00:00:33;6.70;;;4.30;;
27744;SDS011;61387;48.112;8.616;2023-04-12T00:02:59;8.40;;;4.40;;
27744;SDS011;61387;48.112;8.616;2023-04-12T00:05:29;6.77;;;4.60;;
27744;SDS011;61387;48.112;8.616;2023-04-12T00:07:54;7.17;;;3.90;;
27744;SDS011;61387;48.112;8.616;2023-04-12T00:10:20;7.73;;;4.03;;
27744;SDS011;61387;48.112;8.616;2023-04-12T00:12:46;8.50;;;3.83;;
27744;SDS011;61387;48.112;8.616;2023-04-12T00:15:13;8.40;;;4.17;;
27744;SDS011;61387;48.112;8.616;2023-04-12T00:17:39;8.37;;;4.00;;
27744;SDS011;61387;48.112;8.616;2023-04-12T00:20:06;6.03;;;3.63;;
27744;SDS011;61387;48.112;8.616;2023-04-12T00:22:36;7.87;;;4.00;;
27744;SDS011;61387;48.112;8.616;2023-04-12T00:25:03;6.17;;;3.60;;
27744;SDS011;61387;48.112;8.616;2023-04-12T00:27:29;6.43;;;3.50;;
27744;SDS011;61387;48.112;8.616;2023-04-12T00:29:54;7.47;;;3.70;;
27744;SDS011;61387;48.112;8.616;2023-04-12T00:32:20;7.37;;;3.00;;
27744;SDS011;61387;48.112;8.616;2023-04-12T00:34:45;5.53;;;3.10;;
27744;SDS011;61387;48.112;8.616;2023-04-12T00:37:11;4.27;;;2.80;;
27744;SDS011;61387;48.112;8.616;2023-04-12T00:39:37;9.20;;;3.57;;
27744;SDS011;61387;48.112;8.616;2023-04-12T00:42:03;5.60;;;2.83;;
27744;SDS011;61387;48.112;8.616;2023-04-12T00:44:30;5.20;;;3.07;;
27744;SDS011;61387;48.112;8.616;2023-04-12T00:46:56;7.73;;;3.00;;
27744;SDS011;61387;48.112;8.616;2023-04-12T00:49:23;7.10;;;3.60;;
27744;SDS011;61387;48.112;8.616;2023-04-12T00:51:53;5.20;;;3.50;;
27744;SDS011;61387;48.112;8.616;2023-04-12T00:54:19;6.83;;;3.10;;
27744;SDS011;61387;48.112;8.616;2023-04-12T00:56:46;5.70;;;3.30;;
27744;SDS011;61387;48.112;8.616;2023-04-12T00:59:12;4.70;;;3.37;;
27744;SDS011;61387;48.112;8.616;2023-04-12T01:01:39;5.90;;;3.00;;
27744;SDS011;61387;48.112;8.616;2023-04-12T01:04:05;6.77;;;3.03;;
27744;SDS011;61387;48.112;8.616;2023-04-12T01:12:07;5.40;;;3.30;;
27744;SDS011;61387;48.112;8.616;2023-04-12T01:14:48;4.97;;;3.43;;
27744;SDS011;61387;48.112;8.616;2023-04-12T01:17:21;6.57;;;3.20;;
27744;SDS011;61387;48.112;8.616;2023-04-12T01:22:52;7.13;;;3.00;;
27744;SDS011;61387;48.112;8.616;2023-04-12T01:28:13;4.40;;;2.90;;
27744;SDS011;61387;48.112;8.616;2023-04-12T01:30:40;5.83;;;2.93;;
27744;SDS011;61387;48.112;8.616;2023-04-12T01:33:06;4.27;;;2.63;;
27744;SDS011;61387;48.112;8.616;2023-04-12T01:35:34;5.27;;;3.23;;
27744;SDS011;61387;48.112;8.616;2023-04-12T01:38:01;4.93;;;3.30;;
27744;SDS011;61387;48.112;8.616;2023-04-12T01:40:28;5.03;;;3.50;;
27744;SDS011;61387;48.112;8.616;2023-04-12T01:43:06;5.97;;;3.13;;
27744;SDS011;61387;48.112;8.616;2023-04-12T01:45:33;5.70;;;3.40;;
27744;SDS011;61387;48.112;8.616;2023-04-12T01:47:59;7.10;;;3.53;;
27744;SDS011;61387;48.112;8.616;2023-04-12T01:50:32;7.17;;;3.90;;
27744;SDS011;61387;48.112;8.616;2023-04-12T01:53:10;6.73;;;3.60;;
27744;SDS011;61387;48.112;8.616;2023-04-12T01:55:38;6.23;;;3.97;;
27744;SDS011;61387;48.112;8.616;2023-04-12T01:58:06;6.40;;;3.80;;
27744;SDS011;61387;48.112;8.616;2023-04-12T02:00:33;6.90;;;3.80;;
27744;SDS011;61387;48.112;8.616;2023-04-12T02:03:00;5.63;;;3.60;;
27744;SDS011;61387;48.112;8.616;2023-04-12T02:05:27;6.87;;;3.73;;
27744;SDS011;61387;48.112;8.616;2023-04-12T02:07:52;9.70;;;4.10;;
27744;SDS011;61387;48.112;8.616;2023-04-12T02:10:27;8.17;;;4.17;;
27744;SDS011;61387;48.112;8.616;2023-04-12T02:13:00;7.43;;;3.60;;
27744;SDS011;61387;48.112;8.616;2023-04-12T02:15:26;6.93;;;3.33;;
27744;SDS011;61387;48.112;8.616;2023-04-12T02:17:53;6.87;;;3.67;;
27744;SDS011;61387;48.112;8.616;2023-04-12T02:20:19;7.47;;;4.13;;
27744;SDS011;61387;48.112;8.616;2023-04-12T02:22:45;7.03;;;3.70;;
27744;SDS011;61387;48.112;8.616;2023-04-12T02:25:11;6.17;;;3.50;;
27744;SDS011;61387;48.112;8.616;2023-04-12T02:27:37;7.50;;;3.10;;
27744;SDS011;61387;48.112;8.616;2023-04-12T02:30:03;8.27;;;4.10;;
27744;SDS011;61387;48.112;8.616;2023-04-12T02:32:29;5.77;;;2.83;;
27744;SDS011;61387;48.112;8.616;2023-04-12T02:34:55;7.62;;;3.40;;
27744;SDS011;61387;48.112;8.616;2023-04-12T02:37:24;5.87;;;2.93;;
27744;SDS011;61387;48.112;8.616;2023-04-12T02:39:51;7.00;;;3.10;;
27744;SDS011;61387;48.112;8.616;2023-04-12T02:42:20;4.97;;;3.00;;
27744;SDS011;61387;48.112;8.616;2023-04-12T02:44:46;6.17;;;3.17;;
27744;SDS011;61387;48.112;8.616;2023-04-12T02:47:12;5.73;;;3.10;;
27744;SDS011;61387;48.112;8.616;2023-04-12T02:49:38;4.47;;;3.10;;
27744;SDS011;61387;48.112;8.616;2023-04-12T02:52:04;11.50;;;3.30;;
27744;SDS011;61387;48.112;8.616;2023-04-12T02:54:30;4.70;;;2.90;;
27744;SDS011;61387;48.112;8.616;2023-04-12T02:56:56;5.10;;;2.77;;
27744;SDS011;61387;48.112;8.616;2023-04-12T02:59:22;4.90;;;2.63;;
27744;SDS011;61387;48.112;8.616;2023-04-12T03:01:49;5.23;;;2.87;;
27744;SDS011;61387;48.112;8.616;2023-04-12T03:04:15;4.57;;;3.00;;
27744;SDS011;61387;48.112;8.616;2023-04-12T03:06:41;6.47;;;2.87;;
27744;SDS011;61387;48.112;8.616;2023-04-12T03:09:16;5.17;;;2.80;;
27744;SDS011;61387;48.112;8.616;2023-04-12T03:11:42;4.90;;;2.80;;
27744;SDS011;61387;48.112;8.616;2023-04-12T03:14:08;6.60;;;3.00;;
27744;SDS011;61387;48.112;8.616;2023-04-12T03:16:34;5.67;;;2.80;;
27744;SDS011;61387;48.112;8.616;2023-04-12T03:19:00;3.93;;;2.80;;
27744;SDS011;61387;48.112;8.616;2023-04-12T03:21:27;4.83;;;2.70;;
27744;SDS011;61387;48.112;8.616;2023-04-12T03:23:53;7.07;;;3.03;;
27744;SDS011;61387;48.112;8.616;2023-04-12T03:26:19;4.57;;;2.87;;
27744;SDS011;61387;48.112;8.616;2023-04-12T03:28:45;6.90;;;2.77;;
27744;SDS011;61387;48.112;8.616;2023-04-12T03:31:11;5.93;;;2.73;;
27744;SDS011;61387;48.112;8.616;2023-04-12T03:33:37;5.90;;;2.80;;
27744;SDS011;61387;48.112;8.616;2023-04-12T03:36:04;5.80;;;2.80;;
27744;SDS011;61387;48.112;8.616;2023-04-12T03:38:30;4.67;;;2.80;;
27744;SDS011;61387;48.112;8.616;2023-04-12T03:40:55;5.53;;;2.70;;
27744;SDS011;61387;48.112;8.616;2023-04-12T03:43:21;6.53;;;2.90;;
27744;SDS011;61387;48.112;8.616;2023-04-12T03:45:47;5.17;;;2.70;;
27744;SDS011;61387;48.112;8.616;2023-04-12T03:48:12;4.10;;;2.50;;
27744;SDS011;61387;48.112;8.616;2023-04-12T03:50:39;5.57;;;2.67;;
27744;SDS011;61387;48.112;8.616;2023-04-12T03:53:11;4.70;;;2.80;;
27744;SDS011;61387;48.112;8.616;2023-04-12T03:55:37;5.33;;;2.83;;
27744;SDS011;61387;48.112;8.616;2023-04-12T03:58:02;4.90;;;2.80;;
27744;SDS011;61387;48.112;8.616;2023-04-12T04:00:31;5.60;;;3.40;;
27744;SDS011;61387;48.112;8.616;2023-04-12T04:02:57;4.77;;;2.77;;
27744;SDS011;61387;48.112;8.616;2023-04-12T04:05:27;4.93;;;2.87;;
27744;SDS011;61387;48.112;8.616;2023-04-12T04:07:53;7.00;;;2.93;;
27744;SDS011;61387;48.112;8.616;2023-04-12T04:10:20;4.17;;;2.53;;
27744;SDS011;61387;48.112;8.616;2023-04-12T04:12:46;6.30;;;2.77;;
27744;SDS011;61387;48.112;8.616;2023-04-12T04:15:13;3.87;;;2.77;;
27744;SDS011;61387;48.112;8.616;2023-04-12T04:17:39;5.23;;;2.50;;
27744;SDS011;61387;48.112;8.616;2023-04-12T04:20:06;8.07;;;2.80;;
27744;SDS011;61387;48.112;8.616;2023-04-12T04:22:33;4.53;;;2.80;;
27744;SDS011;61387;48.112;8.616;2023-04-12T04:24:59;5.47;;;2.77;;
27744;SDS011;61387;48.112;8.616;2023-04-12T04:27:26;5.30;;;2.77;;
27744;SDS011;61387;48.112;8.616;2023-04-12T04:29:54;5.03;;;3.00;;
27744;SDS011;61387;48.112;8.616;2023-04-12T04:32:23;6.37;;;2.93;;
27744;SDS011;61387;48.112;8.616;2023-04-12T04:34:49;7.10;;;2.67;;
27744;SDS011;61387;48.112;8.616;2023-04-12T04:37:15;4.20;;;2.53;;
27744;SDS011;61387;48.112;8.616;2023-04-12T04:39:42;5.03;;;3.03;;
27744;SDS011;61387;48.112;8.616;2023-04-12T04:42:08;6.05;;;2.65;;
27744;SDS011;61387;48.112;8.616;2023-04-12T04:44:34;4.53;;;2.60;;
27744;SDS011;61387;48.112;8.616;2023-04-12T04:47:01;4.20;;;2.50;;
27744;SDS011;61387;48.112;8.616;2023-04-12T04:49:27;4.13;;;2.47;;
27744;SDS011;61387;48.112;8.616;2023-04-12T04:51:53;7.07;;;2.57;;
27744;SDS011;61387;48.112;8.616;2023-04-12T04:54:19;5.75;;;2.40;;
27744;SDS011;61387;48.112;8.616;2023-04-12T04:56:44;4.73;;;2.63;;
27744;SDS011;61387;48.112;8.616;2023-04-12T04:59:10;5.57;;;2.40;;
27744;SDS011;61387;48.112;8.616;2023-04-12T05:01:35;7.77;;;4.73;;
27744;SDS011;61387;48.112;8.616;2023-04-12T05:04:01;4.87;;;2.75;;
27744;SDS011;61387;48.112;8.616;2023-04-12T05:06:27;4.73;;;2.50;;
27744;SDS011;61387;48.112;8.616;2023-04-12T05:08:53;5.20;;;2.50;;
27744;SDS011;61387;48.112;8.616;2023-04-12T05:11:19;3.53;;;2.40;;
27744;SDS011;61387;48.112;8.616;2023-04-12T05:13:45;3.93;;;2.27;;
27744;SDS011;61387;48.112;8.616;2023-04-12T05:16:10;6.73;;;2.50;;
27744;SDS011;61387;48.112;8.616;2023-04-12T05:18:39;4.53;;;2.50;;
27744;SDS011;61387;48.112;8.616;2023-04-12T05:21:05;5.03;;;2.60;;
27744;SDS011;61387;48.112;8.616;2023-04-12T05:23:41;4.87;;;2.67;;
27744;SDS011;61387;48.112;8.616;2023-04-12T05:26:07;4.03;;;2.63;;
27744;SDS011;61387;48.112;8.616;2023-04-12T05:28:33;6.50;;;2.35;;
27744;SDS011;61387;48.112;8.616;2023-04-12T05:30:58;4.30;;;2.53;;
27744;SDS011;61387;48.112;8.616;2023-04-12T05:33:24;4.60;;;2.30;;
27744;SDS011;61387;48.112;8.616;2023-04-12T05:35:49;3.93;;;2.23;;
27744;SDS011;61387;48.112;8.616;2023-04-12T05:38:15;3.20;;;2.23;;
27744;SDS011;61387;48.112;8.616;2023-04-12T05:40:41;7.67;;;2.67;;
27744;SDS011;61387;48.112;8.616;2023-04-12T05:43:08;4.33;;;2.60;;
27744;SDS011;61387;48.112;8.616;2023-04-12T05:45:36;4.60;;;2.23;;
27744;SDS011;61387;48.112;8.616;2023-04-12T05:48:02;2.67;;;1.90;;
27744;SDS011;61387;48.112;8.616;2023-04-12T05:50:28;3.40;;;2.00;;
27744;SDS011;61387;48.112;8.616;2023-04-12T05:52:54;4.37;;;2.30;;
27744;SDS011;61387;48.112;8.616;2023-04-12T05:55:19;3.70;;;2.10;;
27744;SDS011;61387;48.112;8.616;2023-04-12T05:57:45;4.23;;;2.27;;
27744;SDS011;61387;48.112;8.616;2023-04-12T06:00:12;2.70;;;1.97;;
27744;SDS011;61387;48.112;8.616;2023-04-12T06:02:41;4.70;;;2.07;;
27744;SDS011;61387;48.112;8.616;2023-04-12T06:05:10;3.03;;;2.33;;
27744;SDS011;61387;48.112;8.616;2023-04-12T06:07:37;5.90;;;2.23;;
27744;SDS011;61387;48.112;8.616;2023-04-12T06:10:04;3.77;;;2.30;;
27744;SDS011;61387;48.112;8.616;2023-04-12T06:12:31;4.47;;;2.20;;
27744;SDS011;61387;48.112;8.616;2023-04-12T06:14:56;5.73;;;3.27;;
27744;SDS011;61387;48.112;8.616;2023-04-12T06:17:22;6.43;;;2.30;;
27744;SDS011;61387;48.112;8.616;2023-04-12T06:19:48;6.27;;;2.53;;
27744;SDS011;61387;48.112;8.616;2023-04-12T06:22:14;7.13;;;2.80;;
27744;SDS011;61387;48.112;8.616;2023-04-12T06:24:40;4.07;;;2.67;;
27744;SDS011;61387;48.112;8.616;2023-04-12T06:27:05;5.80;;;2.70;;
27744;SDS011;61387;48.112;8.616;2023-04-12T06:29:31;3.73;;;2.70;;
27744;SDS011;61387;48.112;8.616;2023-04-12T06:31:57;7.27;;;2.67;;
27744;SDS011;61387;48.112;8.616;2023-04-12T06:34:22;4.90;;;2.43;;
27744;SDS011;61387;48.112;8.616;2023-04-12T06:36:48;5.37;;;2.53;;
27744;SDS011;61387;48.112;8.616;2023-04-12T06:39:13;6.33;;;3.00;;
27744;SDS011;61387;48.112;8.616;2023-04-12T06:41:40;4.33;;;2.30;;
27744;SDS011;61387;48.112;8.616;2023-04-12T06:44:08;3.53;;;2.40;;
27744;SDS011;61387;48.112;8.616;2023-04-12T06:46:33;6.37;;;2.60;;
27744;SDS011;61387;48.112;8.616;2023-04-12T06:48:59;4.30;;;2.10;;
27744;SDS011;61387;48.112;8.616;2023-04-12T06:51:25;3.77;;;2.27;;
27744;SDS011;61387;48.112;8.616;2023-04-12T06:53:52;4.27;;;2.00;;
27744;SDS011;61387;48.112;8.616;2023-04-12T06:56:18;4.93;;;2.73;;
27744;SDS011;61387;48.112;8.616;2023-04-12T06:58:43;6.25;;;3.45;;
27744;SDS011;61387;48.112;8.616;2023-04-12T07:01:09;7.73;;;2.63;;
27744;SDS011;61387;48.112;8.616;2023-04-12T07:03:38;5.60;;;3.10;;
27744;SDS011;61387;48.112;8.616;2023-04-12T07:06:04;5.13;;;2.60;;
27744;SDS011;61387;48.112;8.616;2023-04-12T07:08:33;3.37;;;2.27;;
27744;SDS011;61387;48.112;8.616;2023-04-12T07:11:00;6.83;;;2.60;;
27744;SDS011;61387;48.112;8.616;2023-04-12T07:13:26;4.70;;;2.70;;
27744;SDS011;61387;48.112;8.616;2023-04-12T07:15:52;4.50;;;2.40;;
27744;SDS011;61387;48.112;8.616;2023-04-12T07:18:18;6.23;;;2.90;;
27744;SDS011;61387;48.112;8.616;2023-04-12T07:20:45;5.97;;;2.80;;
27744;SDS011;61387;48.112;8.616;2023-04-12T07:23:12;7.30;;;2.57;;
27744;SDS011;61387;48.112;8.616;2023-04-12T07:25:39;5.63;;;2.27;;
27744;SDS011;61387;48.112;8.616;2023-04-12T07:28:04;4.50;;;2.30;;
27744;SDS011;61387;48.112;8.616;2023-04-12T07:30:30;3.13;;;2.00;;
27744;SDS011;61387;48.112;8.616;2023-04-12T07:32:56;3.50;;;2.17;;
27744;SDS011;61387;48.112;8.616;2023-04-12T07:35:24;4.70;;;2.50;;
27744;SDS011;61387;48.112;8.616;2023-04-12T07:37:50;4.27;;;3.00;;
27744;SDS011;61387;48.112;8.616;2023-04-12T07:40:16;4.53;;;2.97;;
27744;SDS011;61387;48.112;8.616;2023-04-12T07:42:41;6.03;;;3.47;;
27744;SDS011;61387;48.112;8.616;2023-04-12T07:45:07;4.73;;;2.93;;
27744;SDS011;61387;48.112;8.616;2023-04-12T07:47:33;4.37;;;2.93;;
27744;SDS011;61387;48.112;8.616;2023-04-12T07:50:00;5.40;;;2.97;;
27744;SDS011;61387;48.112;8.616;2023-04-12T07:52:26;6.53;;;3.43;;
27744;SDS011;61387;48.112;8.616;2023-04-12T07:54:52;4.73;;;3.10;;
27744;SDS011;61387;48.112;8.616;2023-04-12T07:57:19;4.73;;;3.27;;
27744;SDS011;61387;48.112;8.616;2023-04-12T07:59:45;6.97;;;3.30;;
27744;SDS011;61387;48.112;8.616;2023-04-12T08:02:11;6.93;;;4.40;;
27744;SDS011;61387;48.112;8.616;2023-04-12T08:04:37;8.00;;;3.90;;
27744;SDS011;61387;48.112;8.616;2023-04-12T08:07:04;4.00;;;2.80;;
27744;SDS011;61387;48.112;8.616;2023-04-12T08:09:30;5.07;;;3.37;;
27744;SDS011;61387;48.112;8.616;2023-04-12T08:11:56;5.20;;;3.07;;
27744;SDS011;61387;48.112;8.616;2023-04-12T08:14:22;5.70;;;3.20;;
27744;SDS011;61387;48.112;8.616;2023-04-12T08:16:48;4.00;;;2.90;;
27744;SDS011;61387;48.112;8.616;2023-04-12T08:19:13;4.87;;;3.00;;
27744;SDS011;61387;48.112;8.616;2023-04-12T08:21:40;6.70;;;3.17;;
27744;SDS011;61387;48.112;8.616;2023-04-12T08:24:06;8.33;;;3.37;;
27744;SDS011;61387;48.112;8.616;2023-04-12T08:26:33;4.33;;;2.83;;
27744;SDS011;61387;48.112;8.616;2023-04-12T08:28:58;4.30;;;2.83;;
27744;SDS011;61387;48.112;8.616;2023-04-12T08:31:24;5.47;;;3.00;;
27744;SDS011;61387;48.112;8.616;2023-04-12T08:33:49;5.00;;;3.00;;
27744;SDS011;61387;48.112;8.616;2023-04-12T08:36:15;4.30;;;2.80;;
27744;SDS011;61387;48.112;8.616;2023-04-12T08:38:40;5.33;;;2.77;;
27744;SDS011;61387;48.112;8.616;2023-04-12T08:41:06;4.33;;;2.70;;
27744;SDS011;61387;48.112;8.616;2023-04-12T08:43:33;5.20;;;3.00;;
27744;SDS011;61387;48.112;8.616;2023-04-12T08:45:59;3.40;;;2.50;;
27744;SDS011;61387;48.112;8.616;2023-04-12T08:48:26;5.60;;;2.80;;
27744;SDS011;61387;48.112;8.616;2023-04-12T08:50:53;4.30;;;2.47;;
27744;SDS011;61387;48.112;8.616;2023-04-12T08:53:21;4.53;;;2.20;;
27744;SDS011;61387;48.112;8.616;2023-04-12T08:55:47;4.83;;;2.13;;
27744;SDS011;61387;48.112;8.616;2023-04-12T08:58:13;3.70;;;2.20;;
27744;SDS011;61387;48.112;8.616;2023-04-12T09:00:40;3.33;;;2.10;;
27744;SDS011;61387;48.112;8.616;2023-04-12T09:03:08;4.43;;;2.70;;
27744;SDS011;61387;48.112;8.616;2023-04-12T09:05:34;7.87;;;4.13;;
27744;SDS011;61387;48.112;8.616;2023-04-12T09:08:01;4.90;;;2.80;;
27744;SDS011;61387;48.112;8.616;2023-04-12T09:10:31;6.23;;;4.23;;
27744;SDS011;61387;48.112;8.616;2023-04-12T09:12:58;16.33;;;9.53;;
27744;SDS011;61387;48.112;8.616;2023-04-12T09:15:25;38.80;;;19.10;;
27744;SDS011;61387;48.112;8.616;2023-04-12T09:18:04;67.33;;;32.90;;
27744;SDS011;61387;48.112;8.616;2023-04-12T09:20:32;76.53;;;37.13;;
27744;SDS011;61387;48.112;8.616;2023-04-12T09:22:58;29.90;;;18.10;;
27744;SDS011;61387;48.112;8.616;2023-04-12T09:25:34;19.70;;;12.00;;
27744;SDS011;61387;48.112;8.616;2023-04-12T09:28:02;13.60;;;9.33;;
27744;SDS011;61387;48.112;8.616;2023-04-12T09:30:29;18.43;;;11.27;;
27744;SDS011;61387;48.112;8.616;2023-04-12T09:33:09;20.57;;;11.60;;
27744;SDS011;61387;48.112;8.616;2023-04-12T09:35:36;68.83;;;44.03;;
27744;SDS011;61387;48.112;8.616;2023-04-12T09:38:08;12.07;;;7.17;;
27744;SDS011;61387;48.112;8.616;2023-04-12T09:40:34;21.40;;;10.87;;
27744;SDS011;61387;48.112;8.616;2023-04-12T09:43:01;10.90;;;5.97;;
27744;SDS011;61387;48.112;8.616;2023-04-12T09:45:27;13.33;;;7.43;;
27744;SDS011;61387;48.112;8.616;2023-04-12T09:47:55;16.20;;;13.53;;
27744;SDS011;61387;48.112;8.616;2023-04-12T09:50:30;7.90;;;4.50;;
27744;SDS011;61387;48.112;8.616;2023-04-12T09:52:59;5.00;;;3.40;;
27744;SDS011;61387;48.112;8.616;2023-04-12T09:55:27;4.47;;;2.37;;
27744;SDS011;61387;48.112;8.616;2023-04-12T09:57:55;4.47;;;2.00;;
27744;SDS011;61387;48.112;8.616;2023-04-12T10:00:22;4.60;;;2.63;;
27744;SDS011;61387;48.112;8.616;2023-04-12T10:02:50;5.63;;;2.30;;
27744;SDS011;61387;48.112;8.616;2023-04-12T10:05:17;5.30;;;2.07;;
27744;SDS011;61387;48.112;8.616;2023-04-12T10:07:44;3.87;;;1.90;;
27744;SDS011;61387;48.112;8.616;2023-04-12T10:10:10;17.53;;;7.13;;
27744;SDS011;61387;48.112;8.616;2023-04-12T10:12:38;5.80;;;2.40;;
27744;SDS011;61387;48.112;8.616;2023-04-12T10:15:08;4.43;;;2.00;;
27744;SDS011;61387;48.112;8.616;2023-04-12T10:17:57;8.67;;;3.00;;
27744;SDS011;61387;48.112;8.616;2023-04-12T10:20:22;4.00;;;1.80;;
27744;SDS011;61387;48.112;8.616;2023-04-12T10:22:49;5.03;;;2.47;;
27744;SDS011;61387;48.112;8.616;2023-04-12T10:25:17;6.73;;;3.57;;
27744;SDS011;61387;48.112;8.616;2023-04-12T10:27:45;5.47;;;2.33;;
27744;SDS011;61387;48.112;8.616;2023-04-12T10:38:14;5.50;;;2.87;;
27744;SDS011;61387;48.112;8.616;2023-04-12T10:41:05;7.50;;;3.00;;
27744;SDS011;61387;48.112;8.616;2023-04-12T10:43:44;8.13;;;3.10;;
27744;SDS011;61387;48.112;8.616;2023-04-12T10:49:11;5.57;;;2.90;;
27744;SDS011;61387;48.112;8.616;2023-04-12T10:51:37;3.53;;;1.50;;
27744;SDS011;61387;48.112;8.616;2023-04-12T10:56:36;2.80;;;1.57;;
27744;SDS011;61387;48.112;8.616;2023-04-12T10:59:08;4.97;;;2.17;;
27744;SDS011;61387;48.112;8.616;2023-04-12T11:01:35;4.03;;;1.67;;
27744;SDS011;61387;48.112;8.616;2023-04-12T11:04:11;5.23;;;1.90;;
27744;SDS011;61387;48.112;8.616;2023-04-12T11:09:22;10.53;;;6.53;;
27744;SDS011;61387;48.112;8.616;2023-04-12T11:11:50;6.13;;;3.00;;
27744;SDS011;61387;48.112;8.616;2023-04-12T11:14:24;11.60;;;5.17;;
27744;SDS011;61387;48.112;8.616;2023-04-12T11:19:32;11.70;;;5.57;;
27744;SDS011;61387;48.112;8.616;2023-04-12T11:22:02;8.63;;;4.47;;
27744;SDS011;61387;48.112;8.616;2023-04-12T11:24:29;5.53;;;2.90;;
27744;SDS011;61387;48.112;8.616;2023-04-12T11:26:55;5.80;;;3.30;;
27744;SDS011;61387;48.112;8.616;2023-04-12T11:29:25;4.83;;;2.13;;
27744;SDS011;61387;48.112;8.616;2023-04-12T11:31:51;5.23;;;2.67;;
27744;SDS011;61387;48.112;8.616;2023-04-12T11:34:17;3.42;;;1.70;;
27744;SDS011;61387;48.112;8.616;2023-04-12T11:36:44;5.53;;;2.50;;
27744;SDS011;61387;48.112;8.616;2023-04-12T11:39:10;9.80;;;4.73;;
27744;SDS011;61387;48.112;8.616;2023-04-12T11:41:36;5.63;;;2.83;;
27744;SDS011;61387;48.112;8.616;2023-04-12T11:44:02;5.80;;;2.83;;
27744;SDS011;61387;48.112;8.616;2023-04-12T11:46:34;2.70;;;1.20;;
27744;SDS011;61387;48.112;8.616;2023-04-12T11:48:59;9.67;;;4.60;;
27744;SDS011;61387;48.112;8.616;2023-04-12T11:51:25;7.00;;;3.93;;
27744;SDS011;61387;48.112;8.616;2023-04-12T11:53:53;6.77;;;3.60;;
27744;SDS011;61387;48.112;8.616;2023-04-12T11:56:21;2.87;;;1.60;;
27744;SDS011;61387;48.112;8.616;2023-04-12T11:58:47;10.03;;;4.07;;
27744;SDS011;61387;48.112;8.616;2023-04-12T12:01:20;4.47;;;2.40;;
27744;SDS011;61387;48.112;8.616;2023-04-12T12:03:46;5.03;;;2.00;;
27744;SDS011;61387;48.112;8.616;2023-04-12T12:06:14;9.50;;;3.90;;
27744;SDS011;61387;48.112;8.616;2023-04-12T12:08:40;4.30;;;1.50;;
27744;SDS011;61387;48.112;8.616;2023-04-12T12:11:06;5.68;;;2.35;;
27744;SDS011;61387;48.112;8.616;2023-04-12T12:13:49;3.40;;;1.40;;
27744;SDS011;61387;48.112;8.616;2023-04-12T12:16:16;6.00;;;2.47;;
27744;SDS011;61387;48.112;8.616;2023-04-12T12:18:44;6.50;;;2.03;;
27744;SDS011;61387;48.112;8.616;2023-04-12T12:21:11;18.93;;;6.33;;
27744;SDS011;61387;48.112;8.616;2023-04-12T12:23:38;6.10;;;2.53;;
27744;SDS011;61387;48.112;8.616;2023-04-12T12:26:04;3.80;;;1.67;;
27744;SDS011;61387;48.112;8.616;2023-04-12T12:28:36;9.30;;;4.03;;
27744;SDS011;61387;48.112;8.616;2023-04-12T12:31:06;0.83;;;0.57;;
27744;SDS011;61387;48.112;8.616;2023-04-12T12:33:35;9.00;;;3.53;;
27744;SDS011;61387;48.112;8.616;2023-04-12T12:36:02;5.20;;;2.90;;
27744;SDS011;61387;48.112;8.616;2023-04-12T12:38:34;1.20;;;1.10;;
27744;SDS011;61387;48.112;8.616;2023-04-12T12:41:13;2.97;;;0.80;;
27744;SDS011;61387;48.112;8.616;2023-04-12T12:43:49;3.43;;;0.60;;
27744;SDS011;61387;48.112;8.616;2023-04-12T12:46:16;1.33;;;0.63;;
27744;SDS011;61387;48.112;8.616;2023-04-12T12:48:46;2.17;;;1.40;;
27744;SDS011;61387;48.112;8.616;2023-04-12T12:51:13;0.77;;;0.40;;
27744;SDS011;61387;48.112;8.616;2023-04-12T12:53:44;1.50;;;1.07;;
27744;SDS011;61387;48.112;8.616;2023-04-12T12:56:10;1.70;;;1.17;;
27744;SDS011;61387;48.112;8.616;2023-04-12T12:58:37;2.70;;;0.70;;
27744;SDS011;61387;48.112;8.616;2023-04-12T13:01:03;1.50;;;0.93;;
27744;SDS011;61387;48.112;8.616;2023-04-12T13:03:29;2.23;;;0.80;;
27744;SDS011;61387;48.112;8.616;2023-04-12T13:05:55;1.37;;;0.47;;
27744;SDS011;61387;48.112;8.616;2023-04-12T13:08:21;3.17;;;0.80;;
27744;SDS011;61387;48.112;8.616;2023-04-12T13:10:48;1.67;;;0.70;;
27744;SDS011;61387;48.112;8.616;2023-04-12T13:13:13;1.03;;;0.60;;
27744;SDS011;61387;48.112;8.616;2023-04-12T13:15:40;2.40;;;0.60;;
27744;SDS011;61387;48.112;8.616;2023-04-12T13:18:05;1.53;;;0.80;;
27744;SDS011;61387;48.112;8.616;2023-04-12T13:20:31;0.90;;;0.60;;
27744;SDS011;61387;48.112;8.616;2023-04-12T13:22:57;4.30;;;1.90;;
27744;SDS011;61387;48.112;8.616;2023-04-12T13:25:23;1.37;;;0.57;;
27744;SDS011;61387;48.112;8.616;2023-04-12T13:27:49;0.90;;;0.53;;
27744;SDS011;61387;48.112;8.616;2023-04-12T13:30:16;1.03;;;0.70;;
27744;SDS011;61387;48.112;8.616;2023-04-12T13:32:45;3.03;;;0.97;;
27744;SDS011;61387;48.112;8.616;2023-04-12T13:35:11;1.93;;;0.87;;
27744;SDS011;61387;48.112;8.616;2023-04-12T13:37:37;1.87;;;0.60;;
27744;SDS011;61387;48.112;8.616;2023-04-12T13:40:03;1.80;;;0.80;;
27744;SDS011;61387;48.112;8.616;2023-04-12T13:42:29;1.43;;;0.70;;
27744;SDS011;61387;48.112;8.616;2023-04-12T13:44:54;1.00;;;0.63;;
27744;SDS011;61387;48.112;8.616;2023-04-12T13:47:20;3.10;;;0.90;;
27744;SDS011;61387;48.112;8.616;2023-04-12T13:49:47;3.53;;;0.90;;
27744;SDS011;61387;48.112;8.616;2023-04-12T13:52:12;0.93;;;0.60;;
27744;SDS011;61387;48.112;8.616;2023-04-12T13:54:38;1.80;;;0.83;;
27744;SDS011;61387;48.112;8.616;2023-04-12T13:57:05;3.20;;;1.50;;
27744;SDS011;61387;48.112;8.616;2023-04-12T13:59:31;1.97;;;0.70;;
27744;SDS011;61387;48.112;8.616;2023-04-12T14:01:56;1.37;;;0.67;;
27744;SDS011;61387;48.112;8.616;2023-04-12T14:04:22;1.77;;;1.07;;
27744;SDS011;61387;48.112;8.616;2023-04-12T14:06:47;2.47;;;1.07;;
27744;SDS011;61387;48.112;8.616;2023-04-12T14:09:23;1.90;;;1.00;;
27744;SDS011;61387;48.112;8.616;2023-04-12T14:11:53;2.03;;;0.90;;
27744;SDS011;61387;48.112;8.616;2023-04-12T14:14:23;0.87;;;0.53;;
27744;SDS011;61387;48.112;8.616;2023-04-12T14:16:50;1.60;;;0.90;;
27744;SDS011;61387;48.112;8.616;2023-04-12T14:19:18;1.70;;;0.97;;
27744;SDS011;61387;48.112;8.616;2023-04-12T14:21:45;1.40;;;0.60;;
27744;SDS011;61387;48.112;8.616;2023-04-12T14:24:12;2.67;;;0.93;;
27744;SDS011;61387;48.112;8.616;2023-04-12T14:26:38;2.60;;;0.70;;
27744;SDS011;61387;48.112;8.616;2023-04-12T14:29:04;2.37;;;0.87;;
27744;SDS011;61387;48.112;8.616;2023-04-12T14:31:30;3.23;;;0.90;;
27744;SDS011;61387;48.112;8.616;2023-04-12T14:33:56;11.43;;;5.20;;
27744;SDS011;61387;48.112;8.616;2023-04-12T14:36:22;3.60;;;1.33;;
27744;SDS011;61387;48.112;8.616;2023-04-12T14:38:47;2.20;;;0.50;;
27744;SDS011;61387;48.112;8.616;2023-04-12T14:41:14;1.40;;;0.80;;
27744;SDS011;61387;48.112;8.616;2023-04-12T14:43:39;2.37;;;0.60;;
27744;SDS011;61387;48.112;8.616;2023-04-12T14:46:05;2.33;;;1.57;;
27744;SDS011;61387;48.112;8.616;2023-04-12T14:48:31;2.53;;;0.70;;
27744;SDS011;61387;48.112;8.616;2023-04-12T14:50:57;4.07;;;1.17;;
27744;SDS011;61387;48.112;8.616;2023-04-12T14:53:23;1.63;;;0.70;;
27744;SDS011;61387;48.112;8.616;2023-04-12T14:55:48;1.30;;;0.87;;
27744;SDS011;61387;48.112;8.616;2023-04-12T14:58:15;2.30;;;0.90;;
27744;SDS011;61387;48.112;8.616;2023-04-12T15:00:40;2.83;;;0.90;;
27744;SDS011;61387;48.112;8.616;2023-04-12T15:03:07;0.57;;;0.50;;
27744;SDS011;61387;48.112;8.616;2023-04-12T15:05:33;1.57;;;0.70;;
27744;SDS011;61387;48.112;8.616;2023-04-12T15:07:59;1.90;;;1.70;;
27744;SDS011;61387;48.112;8.616;2023-04-12T15:10:25;1.30;;;0.90;;
27744;SDS011;61387;48.112;8.616;2023-04-12T15:12:52;0.87;;;0.50;;
27744;SDS011;61387;48.112;8.616;2023-04-12T15:15:18;1.00;;;0.67;;